Time;durP1;ratioP1;P1;durP2;ratioP2;P2;SDS_P1;SDS_P2;PMS_P1;PMS_P2;Temp;Humidity;BMP_temperature;BMP_pressure;BME280_temperature;BME280_humidity;BME280_pressure;Samples;Min_cycle;Max_cycle;Signal;HPM_P1;HPM_P2
2023/06/13 00:01:48;;;;;;;6.90;3.63;;;18.00;87.90;;;;;;5098584;27;20049;-69
2023/06/13 00:04:21;;;;;;;10.85;4.97;;;18.10;87.90;;;;;;5072531;27;20038;-71
2023/06/13 00:06:52;;;;;;;7.57;4.53;;;18.00;87.90;;;;;;5103632;27;20047;-70
2023/06/13 00:09:18;;;;;;;6.88;4.28;;;18.00;88.20;;;;;;5103748;27;20047;-70
2023/06/13 00:11:46;;;;;;;7.68;4.32;;;17.90;88.10;;;;;;5103772;27;20054;-71
2023/06/13 00:14:12;;;;;;;7.68;4.05;;;17.90;88.10;;;;;;5089007;27;20098;-71
2023/06/13 00:16:39;;;;;;;7.38;4.68;;;17.80;87.90;;;;;;5086457;27;20133;-70
2023/06/13 00:19:05;;;;;;;6.85;4.07;;;17.80;87.90;;;;;;5090820;27;20054;-69
2023/06/13 00:21:34;;;;;;;8.02;4.28;;;17.80;87.70;;;;;;5106575;27;20485;-70
2023/06/13 00:23:59;;;;;;;6.50;4.25;;;17.70;87.60;;;;;;5085811;27;20054;-70
2023/06/13 00:26:25;;;;;;;5.32;4.00;;;17.60;87.60;;;;;;5106086;27;20047;-70
2023/06/13 00:28:52;;;;;;;6.93;4.10;;;17.70;87.70;;;;;;5103635;27;21881;-70
2023/06/13 00:31:19;;;;;;;6.63;4.22;;;17.60;87.70;;;;;;5103097;27;20043;-70
2023/06/13 00:33:45;;;;;;;6.30;3.88;;;17.60;87.70;;;;;;5103536;27;20129;-71
2023/06/13 00:36:15;;;;;;;5.93;4.20;;;17.60;87.80;;;;;;5102957;27;20054;-71
2023/06/13 00:38:42;;;;;;;5.85;4.53;;;17.50;87.80;;;;;;5102808;27;20078;-72
2023/06/13 00:41:08;;;;;;;7.15;4.47;;;17.50;88.10;;;;;;5102961;27;20042;-71
2023/06/13 00:43:34;;;;;;;6.18;4.30;;;17.50;88.30;;;;;;5084710;27;20845;-71
2023/06/13 00:46:03;;;;;;;9.77;4.32;;;17.40;88.20;;;;;;5105974;27;20056;-72
2023/06/13 00:48:29;;;;;;;5.28;4.30;;;17.40;88.30;;;;;;5102307;27;20572;-71
2023/06/13 00:50:55;;;;;;;6.78;4.07;;;17.30;88.20;;;;;;5106196;27;20050;-72
2023/06/13 00:53:21;;;;;;;7.10;4.40;;;17.20;88.00;;;;;;5088981;27;20493;-71
2023/06/13 00:55:50;;;;;;;6.35;4.32;;;17.30;88.10;;;;;;5088337;27;20047;-70
2023/06/13 00:58:16;;;;;;;7.32;4.70;;;17.30;88.20;;;;;;5103558;27;20047;-69
2023/06/13 01:00:45;;;;;;;12.43;4.60;;;17.20;88.20;;;;;;5103666;27;20044;-71
2023/06/13 01:03:15;;;;;;;10.65;5.05;;;17.20;88.30;;;;;;5105509;27;20070;-69
2023/06/13 01:05:44;;;;;;;6.32;4.68;;;17.10;88.40;;;;;;5088271;27;20099;-69
2023/06/13 01:08:12;;;;;;;7.40;5.25;;;17.10;88.50;;;;;;5107997;27;20123;-71
2023/06/13 01:10:42;;;;;;;7.53;5.30;;;17.10;88.80;;;;;;5104030;27;20063;-70
2023/06/13 01:13:24;;;;;;;8.00;4.75;;;17.00;88.80;;;;;;5105469;27;20050;-70
2023/06/13 01:16:01;;;;;;;8.65;5.15;;;17.00;88.90;;;;;;5100224;27;20054;-71
2023/06/13 01:18:30;;;;;;;8.73;4.80;;;16.90;88.90;;;;;;5100306;27;20043;-70
2023/06/13 01:21:00;;;;;;;7.32;4.63;;;16.90;89.00;;;;;;5082348;27;20129;-70
2023/06/13 01:24:05;;;;;;;6.13;4.88;;;16.90;89.20;;;;;;5096498;27;20082;-72
2023/06/13 01:26:43;;;;;;;7.22;4.38;;;16.80;89.40;;;;;;5039456;27;20060;-71
2023/06/13 01:29:10;;;;;;;7.65;4.78;;;16.80;89.40;;;;;;5104518;27;20047;-71
2023/06/13 01:31:36;;;;;;;7.25;4.70;;;16.70;89.40;;;;;;5100182;27;20393;-70
2023/06/13 01:34:03;;;;;;;6.22;4.72;;;16.70;89.60;;;;;;5104728;27;20043;-71
2023/06/13 01:36:29;;;;;;;9.05;5.22;;;16.70;89.70;;;;;;5087220;27;20527;-69
2023/06/13 01:38:55;;;;;;;7.20;4.93;;;16.60;89.70;;;;;;5104295;27;20066;-70
2023/06/13 01:41:21;;;;;;;9.07;5.25;;;16.60;89.70;;;;;;5104922;27;20160;-69
2023/06/13 01:43:47;;;;;;;5.68;4.50;;;16.60;89.80;;;;;;5073403;27;20532;-69
2023/06/13 01:46:42;;;;;;;7.40;4.63;;;16.50;89.90;;;;;;5084835;27;20158;-69
2023/06/13 01:49:10;;;;;;;8.45;5.03;;;16.50;90.10;;;;;;5101016;27;20121;-70
2023/06/13 01:52:06;;;;;;;6.28;5.13;;;16.50;90.10;;;;;;5106781;27;20043;-70
2023/06/13 01:54:37;;;;;;;7.63;5.35;;;16.40;90.10;;;;;;5089217;27;20063;-70
2023/06/13 01:57:06;;;;;;;6.57;4.63;;;16.40;90.20;;;;;;5102719;27;20410;-69
2023/06/13 01:59:32;;;;;;;8.55;4.78;;;16.30;90.20;;;;;;5097367;27;20043;-70
2023/06/13 02:02:00;;;;;;;7.22;5.03;;;16.30;90.20;;;;;;5087448;27;20043;-69
2023/06/13 02:04:28;;;;;;;8.15;5.25;;;16.20;90.30;;;;;;5103620;27;20039;-68
2023/06/13 02:06:54;;;;;;;6.53;4.97;;;16.20;90.40;;;;;;5100460;27;20147;-69
2023/06/13 02:09:20;;;;;;;7.55;5.10;;;16.20;90.50;;;;;;5101727;27;20704;-71
2023/06/13 02:11:45;;;;;;;7.80;5.05;;;16.10;90.50;;;;;;5103065;27;20031;-71
2023/06/13 02:14:11;;;;;;;7.57;5.03;;;16.10;90.60;;;;;;5103257;27;20047;-70
2023/06/13 02:16:39;;;;;;;8.63;5.20;;;16.10;90.70;;;;;;5102892;27;20048;-68
2023/06/13 02:19:07;;;;;;;7.63;4.45;;;16.00;90.70;;;;;;5085449;27;20382;-69
2023/06/13 02:21:33;;;;;;;8.73;4.90;;;16.00;90.90;;;;;;5103688;27;20055;-70
2023/06/13 02:23:58;;;;;;;6.18;4.22;;;15.90;90.90;;;;;;5064740;27;20061;-69
2023/06/13 02:26:28;;;;;;;7.22;4.50;;;15.90;91.00;;;;;;5101294;27;20438;-68
2023/06/13 02:28:57;;;;;;;5.97;4.70;;;15.90;91.10;;;;;;5097574;27;20043;-69
2023/06/13 02:31:23;;;;;;;6.63;4.88;;;15.70;91.20;;;;;;5058816;27;20121;-69
2023/06/13 02:33:49;;;;;;;9.18;4.40;;;15.80;91.30;;;;;;5104550;27;20058;-69
2023/06/13 02:36:15;;;;;;;7.97;4.85;;;15.80;91.40;;;;;;5102312;27;20054;-69
2023/06/13 02:38:43;;;;;;;6.20;4.45;;;15.70;91.50;;;;;;5089046;27;20050;-70
2023/06/13 02:41:08;;;;;;;9.50;4.90;;;15.70;91.70;;;;;;5099730;27;20073;-70
2023/06/13 02:43:34;;;;;;;7.15;4.68;;;15.70;91.80;;;;;;5117643;27;20471;-71
2023/06/13 02:46:00;;;;;;;6.15;4.28;;;15.60;91.90;;;;;;5081927;27;20055;-71
2023/06/13 02:48:26;;;;;;;8.10;4.22;;;15.60;92.00;;;;;;5086088;27;20046;-69
2023/06/13 02:50:53;;;;;;;8.27;5.00;;;15.60;92.10;;;;;;5102476;27;20081;-69
2023/06/13 02:53:20;;;;;;;8.52;5.00;;;15.50;92.10;;;;;;5100486;27;20088;-71
2023/06/13 02:55:46;;;;;;;8.82;5.00;;;15.50;92.20;;;;;;5123259;27;20924;-69
2023/06/13 02:58:12;;;;;;;8.98;4.57;;;15.50;92.30;;;;;;5122845;27;20043;-69
2023/06/13 03:00:38;;;;;;;8.90;4.75;;;15.40;92.20;;;;;;5099181;27;20050;-71
2023/06/13 03:03:04;;;;;;;7.03;4.72;;;15.40;92.30;;;;;;5083923;27;20058;-69
2023/06/13 03:05:32;;;;;;;7.35;4.80;;;15.30;92.40;;;;;;5102267;27;21939;-70
2023/06/13 03:07:59;;;;;;;7.20;4.78;;;15.30;92.40;;;;;;5103051;27;20050;-69
2023/06/13 03:10:25;;;;;;;6.53;4.25;;;15.30;92.50;;;;;;5070949;27;20043;-69
2023/06/13 03:12:51;;;;;;;6.75;4.53;;;15.30;92.60;;;;;;5103009;27;20688;-71
2023/06/13 03:15:17;;;;;;;7.25;5.05;;;15.30;92.70;;;;;;5080115;27;20171;-71
2023/06/13 03:17:45;;;;;;;7.15;4.93;;;15.20;92.70;;;;;;5101619;27;20051;-70
2023/06/13 03:20:11;;;;;;;6.45;4.80;;;15.20;92.80;;;;;;5102674;27;20044;-69
2023/06/13 03:22:37;;;;;;;6.45;4.65;;;15.20;92.90;;;;;;5104497;27;20042;-70
2023/06/13 03:25:06;;;;;;;6.88;5.07;;;15.20;93.00;;;;;;5083079;27;20672;-69
2023/06/13 03:27:32;;;;;;;7.07;5.03;;;15.10;93.00;;;;;;5100552;27;20378;-71
2023/06/13 03:29:58;;;;;;;6.90;4.32;;;15.20;93.20;;;;;;5100281;27;20043;-69
2023/06/13 03:32:24;;;;;;;5.22;4.18;;;15.10;93.30;;;;;;5104501;27;20042;-69
2023/06/13 03:34:50;;;;;;;6.90;4.35;;;15.10;93.40;;;;;;5067164;27;20584;-69
2023/06/13 03:37:16;;;;;;;7.20;4.28;;;15.10;93.50;;;;;;5097259;27;20047;-70
2023/06/13 03:39:42;;;;;;;7.65;4.68;;;15.10;93.50;;;;;;5102113;27;20122;-69
2023/06/13 03:42:08;;;;;;;5.72;4.38;;;15.10;93.60;;;;;;5102768;27;20046;-69
2023/06/13 03:44:33;;;;;;;7.15;4.70;;;15.10;93.60;;;;;;5102302;27;20042;-69
2023/06/13 03:46:59;;;;;;;9.10;4.68;;;15.10;93.70;;;;;;5091893;27;20043;-70
2023/06/13 03:49:25;;;;;;;6.43;4.75;;;15.00;93.70;;;;;;5106029;27;20103;-71
2023/06/13 03:51:52;;;;;;;5.72;4.28;;;15.10;93.80;;;;;;5101768;27;20043;-69
2023/06/13 03:54:21;;;;;;;7.20;4.55;;;15.10;93.90;;;;;;5102870;27;20455;-69
2023/06/13 03:56:47;;;;;;;7.45;4.32;;;15.10;94.00;;;;;;5096599;27;20054;-69
2023/06/13 03:59:13;;;;;;;6.95;4.43;;;15.00;94.00;;;;;;5102837;27;20051;-71
2023/06/13 04:01:41;;;;;;;8.05;4.28;;;15.10;94.10;;;;;;5083434;27;20489;-71
2023/06/13 04:04:08;;;;;;;6.70;4.38;;;15.10;94.10;;;;;;5119479;27;20050;-70
2023/06/13 04:06:34;;;;;;;7.45;4.45;;;15.10;94.10;;;;;;5100250;27;20093;-69
2023/06/13 04:09:02;;;;;;;8.43;4.78;;;15.10;94.10;;;;;;5094042;27;20138;-71
2023/06/13 04:11:29;;;;;;;6.50;4.38;;;15.10;94.10;;;;;;5097520;27;20043;-69
2023/06/13 04:13:55;;;;;;;8.45;4.68;;;15.20;94.20;;;;;;5071646;27;20139;-70
2023/06/13 04:16:20;;;;;;;7.35;5.20;;;15.20;94.20;;;;;;5088312;27;20130;-69
2023/06/13 04:18:46;;;;;;;8.30;4.88;;;15.20;94.20;;;;;;5083737;27;20392;-69
2023/06/13 04:21:12;;;;;;;7.47;4.30;;;15.20;94.20;;;;;;5082840;27;20047;-71
2023/06/13 04:23:38;;;;;;;6.55;4.63;;;15.20;94.20;;;;;;5101684;27;20050;-70
2023/06/13 04:26:05;;;;;;;7.60;4.65;;;15.30;94.20;;;;;;5085957;27;20405;-69
2023/06/13 04:28:32;;;;;;;8.05;4.97;;;15.30;94.20;;;;;;5065914;27;20038;-69
2023/06/13 04:31:00;;;;;;;7.15;4.65;;;15.30;94.30;;;;;;5084153;27;20595;-69
2023/06/13 04:33:26;;;;;;;8.60;5.00;;;15.40;94.30;;;;;;5083924;27;20073;-69
2023/06/13 04:35:54;;;;;;;9.10;4.50;;;15.40;94.40;;;;;;5076425;27;20043;-69
2023/06/13 04:38:21;;;;;;;6.55;4.55;;;15.40;94.40;;;;;;5101130;27;20107;-70
2023/06/13 04:40:47;;;;;;;7.30;4.88;;;15.50;94.50;;;;;;5101125;27;20082;-69
2023/06/13 04:43:16;;;;;;;6.78;4.50;;;15.50;94.50;;;;;;5099432;27;20051;-71
2023/06/13 04:45:43;;;;;;;6.82;4.32;;;15.50;94.50;;;;;;5086697;27;20055;-70
2023/06/13 04:48:10;;;;;;;9.35;4.78;;;15.60;94.50;;;;;;5099469;27;20050;-70
2023/06/13 04:50:40;;;;;;;9.63;4.80;;;15.60;94.50;;;;;;5100580;27;20143;-69
2023/06/13 04:53:08;;;;;;;7.15;4.40;;;15.70;94.50;;;;;;5085093;27;20043;-69
2023/06/13 04:55:37;;;;;;;6.20;4.47;;;15.70;94.40;;;;;;5092927;27;20632;-70
2023/06/13 04:58:04;;;;;;;10.02;5.13;;;15.80;94.40;;;;;;5101794;27;20225;-70
2023/06/13 05:00:30;;;;;;;6.45;4.50;;;15.80;94.40;;;;;;5065406;27;20059;-71
2023/06/13 05:02:56;;;;;;;6.85;4.88;;;15.90;94.40;;;;;;5091010;27;20047;-71
2023/06/13 05:05:22;;;;;;;7.85;4.45;;;15.90;94.30;;;;;;5103717;27;20103;-70
2023/06/13 05:08:00;;;;;;;6.80;4.20;;;16.00;94.30;;;;;;5106340;27;20914;-71
2023/06/13 05:10:26;;;;;;;8.13;4.60;;;16.10;94.30;;;;;;5100182;27;20069;-71
2023/06/13 05:12:53;;;;;;;5.82;4.22;;;16.20;94.20;;;;;;5088012;27;20536;-71
2023/06/13 05:15:20;;;;;;;5.72;4.15;;;16.30;94.20;;;;;;5094565;27;20055;-71
2023/06/13 05:17:48;;;;;;;6.95;4.43;;;16.40;94.10;;;;;;5093876;27;20207;-72
2023/06/13 05:20:14;;;;;;;5.88;4.25;;;16.50;94.00;;;;;;5097149;27;20099;-72
2023/06/13 05:22:41;;;;;;;7.22;4.03;;;16.50;93.90;;;;;;5072785;27;20085;-70
2023/06/13 05:25:09;;;;;;;6.93;3.95;;;16.60;93.80;;;;;;5096445;27;20093;-75
2023/06/13 05:27:41;;;;;;;7.18;4.20;;;16.70;93.70;;;;;;5081980;27;20191;-69
2023/06/13 05:30:10;;;;;;;9.40;4.57;;;16.80;93.50;;;;;;5095762;27;20206;-70
2023/06/13 05:32:37;;;;;;;5.40;3.90;;;17.00;93.40;;;;;;5089677;27;20050;-74
2023/06/13 05:35:08;;;;;;;5.88;3.97;;;17.10;93.20;;;;;;5091126;27;20532;-74
2023/06/13 05:37:35;;;;;;;7.22;3.65;;;17.20;93.10;;;;;;5057184;27;20039;-74
2023/06/13 05:40:04;;;;;;;5.97;4.07;;;17.30;92.90;;;;;;5045103;27;20419;-75
2023/06/13 05:42:31;;;;;;;7.05;4.25;;;17.10;92.50;;;;;;5096503;27;20074;-74
2023/06/13 05:44:57;;;;;;;5.45;3.65;;;17.60;92.40;;;;;;5064904;27;20074;-74
2023/06/13 05:47:25;;;;;;;5.75;3.60;;;17.70;92.40;;;;;;5112396;27;20561;-74
2023/06/13 05:49:51;;;;;;;7.30;3.88;;;17.90;91.90;;;;;;5089259;27;20170;-70
2023/06/13 05:52:16;;;;;;;7.40;3.85;;;18.00;91.60;;;;;;5109334;27;20053;-73
2023/06/13 05:54:43;;;;;;;5.97;3.78;;;18.20;91.50;;;;;;5054581;27;20096;-73
2023/06/13 05:57:09;;;;;;;9.07;3.78;;;18.30;91.30;;;;;;5074150;27;20049;-71
2023/06/13 05:59:35;;;;;;;4.95;3.35;;;18.50;91.20;;;;;;5072960;27;20051;-72
2023/06/13 06:02:00;;;;;;;4.63;3.53;;;18.60;90.90;;;;;;5075641;27;20055;-72
2023/06/13 06:04:26;;;;;;;6.68;3.75;;;18.70;90.70;;;;;;5091602;27;20042;-73
2023/06/13 06:06:53;;;;;;;5.50;3.67;;;18.80;90.40;;;;;;5090728;27;20051;-73
2023/06/13 06:09:19;;;;;;;6.78;3.50;;;19.00;90.20;;;;;;5072303;27;20146;-73
2023/06/13 06:11:45;;;;;;;4.45;3.38;;;19.10;90.00;;;;;;5088015;27;20508;-72
2023/06/13 06:14:11;;;;;;;7.63;3.65;;;19.20;89.30;;;;;;5085374;27;20043;-72
2023/06/13 06:16:36;;;;;;;8.30;3.60;;;19.40;88.90;;;;;;5072746;27;20062;-72
2023/06/13 06:19:02;;;;;;;6.82;3.70;;;19.60;89.00;;;;;;5087804;27;20053;-71
2023/06/13 06:21:28;;;;;;;6.13;3.83;;;19.70;88.60;;;;;;5072357;27;20055;-72
2023/06/13 06:23:54;;;;;;;9.15;3.47;;;19.90;88.00;;;;;;5101009;27;20086;-72
2023/06/13 06:26:22;;;;;;;6.82;3.72;;;20.10;87.30;;;;;;5077951;27;20047;-71
2023/06/13 06:28:47;;;;;;;6.25;3.53;;;20.20;86.80;;;;;;5073480;27;20468;-71
2023/06/13 06:31:13;;;;;;;5.00;3.20;;;20.30;86.00;;;;;;5089570;27;20043;-71
2023/06/13 06:33:39;;;;;;;5.10;3.47;;;20.50;85.30;;;;;;5093708;27;20648;-72
2023/06/13 06:36:05;;;;;;;6.63;3.40;;;20.60;84.80;;;;;;5092092;27;20046;-72
2023/06/13 06:38:31;;;;;;;6.70;3.38;;;20.80;84.70;;;;;;5089816;27;20109;-72
2023/06/13 06:40:56;;;;;;;5.50;3.45;;;20.90;84.40;;;;;;5090753;27;20058;-72
2023/06/13 06:43:22;;;;;;;6.28;3.40;;;21.00;84.30;;;;;;5088131;27;20153;-71
2023/06/13 06:45:48;;;;;;;6.93;3.60;;;21.20;83.20;;;;;;5087782;27;20043;-71
2023/06/13 06:48:14;;;;;;;7.45;3.40;;;21.40;82.40;;;;;;5071166;27;20178;-71
2023/06/13 06:50:40;;;;;;;3.95;3.10;;;21.50;81.70;;;;;;5088303;27;20042;-72
2023/06/13 06:53:05;;;;;;;6.85;3.63;;;21.60;82.10;;;;;;5072390;27;20058;-70
2023/06/13 06:55:31;;;;;;;7.18;3.30;;;21.80;81.90;;;;;;5071259;27;20104;-71
2023/06/13 06:57:57;;;;;;;7.63;3.38;;;22.00;81.30;;;;;;5109315;27;20211;-72
2023/06/13 07:00:23;;;;;;;9.48;3.25;;;22.10;80.90;;;;;;5073100;27;20039;-70
2023/06/13 07:02:49;;;;;;;5.57;3.50;;;22.20;80.40;;;;;;5079059;27;20137;-70
2023/06/13 07:05:17;;;;;;;10.18;3.63;;;22.40;80.30;;;;;;5077377;27;20043;-72
2023/06/13 07:07:44;;;;;;;13.18;3.90;;;22.40;79.60;;;;;;5094479;27;20057;-72
2023/06/13 07:10:10;;;;;;;9.30;3.28;;;22.50;79.30;;;;;;5093810;27;20074;-71
2023/06/13 07:12:40;;;;;;;11.10;3.53;;;22.60;78.80;;;;;;5071648;27;20051;-72
2023/06/13 07:15:06;;;;;;;5.65;3.50;;;22.70;78.70;;;;;;5088669;27;20050;-72
2023/06/13 07:17:32;;;;;;;7.65;3.17;;;22.90;77.90;;;;;;5090375;27;20131;-72
2023/06/13 07:19:58;;;;;;;7.13;3.15;;;23.00;77.50;;;;;;5096191;27;20060;-72
2023/06/13 07:22:25;;;;;;;5.55;3.20;;;23.10;76.80;;;;;;5115444;27;20049;-70
2023/06/13 07:24:50;;;;;;;5.57;3.55;;;23.20;76.80;;;;;;5106307;27;20055;-70
2023/06/13 07:27:17;;;;;;;4.00;3.03;;;23.40;76.60;;;;;;5087253;27;20042;-71
2023/06/13 07:29:43;;;;;;;5.43;3.13;;;23.60;76.20;;;;;;5100527;27;20055;-72
2023/06/13 07:32:09;;;;;;;5.90;2.80;;;23.70;75.80;;;;;;5094919;27;20540;-70
2023/06/13 07:34:35;;;;;;;5.32;3.13;;;23.90;75.10;;;;;;5101523;27;20050;-69
2023/06/13 07:37:03;;;;;;;7.45;2.80;;;24.10;74.80;;;;;;5108028;27;20082;-74
2023/06/13 07:39:29;;;;;;;5.78;2.97;;;24.30;74.40;;;;;;5112107;27;20413;-72
2023/06/13 07:41:54;;;;;;;5.93;2.70;;;24.40;73.60;;;;;;5091108;27;20054;-71
2023/06/13 07:44:21;;;;;;;5.63;2.90;;;24.50;72.90;;;;;;5112029;27;20503;-71
2023/06/13 07:46:47;;;;;;;5.55;2.90;;;24.70;72.40;;;;;;5113309;27;20051;-71
2023/06/13 07:49:14;;;;;;;5.15;3.13;;;24.70;71.50;;;;;;5112866;27;20147;-72
2023/06/13 07:51:40;;;;;;;5.35;2.75;;;24.90;71.90;;;;;;5109114;27;20049;-71
2023/06/13 07:54:06;;;;;;;4.03;2.70;;;25.10;71.90;;;;;;5103753;27;20059;-71
2023/06/13 07:56:32;;;;;;;4.25;2.60;;;25.20;70.90;;;;;;5069595;27;20043;-71
2023/06/13 07:58:58;;;;;;;5.07;2.67;;;25.40;70.60;;;;;;5099664;27;20063;-72
2023/06/13 08:01:24;;;;;;;4.60;2.53;;;25.50;70.50;;;;;;5073878;27;20103;-71
2023/06/13 08:03:50;;;;;;;6.82;2.80;;;25.70;70.60;;;;;;5100524;27;20481;-73
2023/06/13 08:06:16;;;;;;;4.90;2.83;;;25.90;70.50;;;;;;5100957;27;20617;-74
2023/06/13 08:08:42;;;;;;;3.50;2.55;;;26.10;70.00;;;;;;5100184;27;20047;-70
2023/06/13 08:11:08;;;;;;;5.13;2.50;;;26.40;69.40;;;;;;5095295;27;20047;-69
2023/06/13 08:13:33;;;;;;;3.42;2.15;;;26.60;68.70;;;;;;5090311;27;20047;-69
2023/06/13 08:16:01;;;;;;;5.85;2.67;;;26.90;68.20;;;;;;5077793;27;20160;-68
2023/06/13 08:18:27;;;;;;;5.82;2.45;;;27.20;67.10;;;;;;5093901;27;20129;-69
2023/06/13 08:20:53;;;;;;;4.45;2.63;;;27.40;66.70;;;;;;5099636;27;20065;-68
2023/06/13 08:23:18;;;;;;;3.00;2.08;;;27.50;65.80;;;;;;5084456;27;20426;-70
2023/06/13 08:25:44;;;;;;;5.70;2.67;;;27.70;65.10;;;;;;5114876;27;20046;-70
2023/06/13 08:28:11;;;;;;;4.82;2.22;;;27.90;64.40;;;;;;5106060;27;20066;-70
2023/06/13 08:30:37;;;;;;;7.43;2.78;;;27.90;64.20;;;;;;5081808;27;20096;-68
2023/06/13 08:33:03;;;;;;;5.78;2.20;;;28.00;63.20;;;;;;5074751;27;20050;-68
2023/06/13 08:35:30;;;;;;;4.45;2.20;;;28.20;62.80;;;;;;5093488;27;20479;-69
2023/06/13 08:37:56;;;;;;;4.28;2.20;;;28.30;62.40;;;;;;5073084;27;20039;-68
2023/06/13 08:40:22;;;;;;;4.07;2.50;;;28.50;62.20;;;;;;5099747;27;20042;-67
2023/06/13 08:42:48;;;;;;;2.97;2.13;;;28.60;62.30;;;;;;5102815;27;20088;-69
2023/06/13 08:45:14;;;;;;;6.10;2.80;;;28.80;61.70;;;;;;5105157;27;20041;-69
2023/06/13 08:47:46;;;;;;;5.10;2.30;;;28.90;61.10;;;;;;5103145;27;20129;-67
2023/06/13 08:50:14;;;;;;;6.53;2.50;;;28.90;60.50;;;;;;5101532;27;20047;-67
2023/06/13 08:52:41;;;;;;;4.05;1.98;;;28.90;61.30;;;;;;5086201;27;20051;-68
2023/06/13 08:55:13;;;;;;;4.20;2.53;;;29.10;61.10;;;;;;5080282;27;20138;-69
2023/06/13 08:57:42;;;;;;;4.72;2.40;;;29.20;61.00;;;;;;5098180;27;20104;-68
2023/06/13 09:00:12;;;;;;;5.43;2.45;;;29.30;60.40;;;;;;5098406;27;20051;-69
2023/06/13 09:02:45;;;;;;;9.82;2.80;;;29.30;59.30;;;;;;5097922;27;20047;-67
2023/06/13 09:05:15;;;;;;;5.32;2.22;;;29.30;58.70;;;;;;5098945;27;20046;-69
2023/06/13 09:07:46;;;;;;;6.72;2.15;;;29.30;58.10;;;;;;5103338;27;20056;-67
2023/06/13 09:10:12;;;;;;;6.00;2.83;;;29.30;58.10;;;;;;5104369;27;20061;-68
2023/06/13 09:12:46;;;;;;;4.35;2.65;;;29.40;58.70;;;;;;5104204;27;20175;-68
2023/06/13 09:15:12;;;;;;;5.50;2.55;;;29.50;57.80;;;;;;5110467;27;20649;-68
2023/06/13 09:17:38;;;;;;;5.13;2.58;;;29.70;58.60;;;;;;5130258;27;20085;-68
2023/06/13 09:20:06;;;;;;;4.25;2.10;;;29.80;58.30;;;;;;5108644;27;20051;-67
2023/06/13 09:22:38;;;;;;;5.57;2.60;;;29.90;57.70;;;;;;5103869;27;20077;-67
2023/06/13 09:25:05;;;;;;;3.13;2.28;;;29.90;56.60;;;;;;5088459;27;20050;-66
2023/06/13 09:27:31;;;;;;;3.55;2.58;;;30.00;57.70;;;;;;5112398;27;20069;-69
2023/06/13 09:30:03;;;;;;;5.80;2.38;;;30.20;57.70;;;;;;5113621;27;20086;-67
2023/06/13 09:32:30;;;;;;;6.00;2.38;;;30.30;56.60;;;;;;5111312;27;20511;-67
2023/06/13 09:34:56;;;;;;;5.57;2.53;;;30.30;57.00;;;;;;5116560;27;20055;-67
2023/06/13 09:37:25;;;;;;;6.55;2.63;;;30.40;56.60;;;;;;5099843;27;20042;-66
2023/06/13 09:39:51;;;;;;;7.20;2.50;;;30.50;56.60;;;;;;5111500;27;20512;-68
2023/06/13 09:42:22;;;;;;;7.00;2.80;;;30.50;56.40;;;;;;5108185;27;20039;-68
2023/06/13 09:44:52;;;;;;;7.50;2.78;;;30.60;56.40;;;;;;5117142;27;20050;-67
2023/06/13 09:47:22;;;;;;;6.53;2.70;;;30.80;56.60;;;;;;5114124;27;20074;-67
2023/06/13 09:49:58;;;;;;;6.05;2.80;;;31.00;56.00;;;;;;5113751;27;20043;-67
2023/06/13 09:52:25;;;;;;;4.68;2.70;;;31.10;55.90;;;;;;5112129;27;20042;-69
2023/06/13 09:54:52;;;;;;;5.45;2.50;;;31.30;56.20;;;;;;5109872;27;20046;-69
2023/06/13 09:57:19;;;;;;;4.10;3.00;;;31.30;56.10;;;;;;5104460;27;20047;-68
2023/06/13 09:59:50;;;;;;;6.32;2.38;;;31.40;55.90;;;;;;5083574;27;20078;-68
2023/06/13 10:02:16;;;;;;;7.82;2.72;;;31.60;55.40;;;;;;5073752;27;20068;-76
2023/06/13 10:04:42;;;;;;;6.03;2.50;;;31.70;55.70;;;;;;5100641;27;20411;-68
2023/06/13 10:07:11;;;;;;;4.78;2.83;;;31.70;55.20;;;;;;5098061;27;20102;-68
2023/06/13 10:09:37;;;;;;;5.07;2.90;;;31.80;55.50;;;;;;5102329;27;20062;-69
2023/06/13 10:12:11;;;;;;;6.20;2.70;;;31.90;55.30;;;;;;5081197;27;21274;-70
2023/06/13 10:14:42;;;;;;;4.55;2.72;;;31.90;55.00;;;;;;5098125;27;20054;-69
2023/06/13 10:17:12;;;;;;;4.35;2.63;;;31.90;54.40;;;;;;5093587;27;20053;-70
2023/06/13 10:19:40;;;;;;;4.70;2.67;;;32.10;54.10;;;;;;5110687;27;20108;-71
2023/06/13 10:22:09;;;;;;;3.35;2.58;;;31.90;54.10;;;;;;5106345;27;20524;-69
2023/06/13 10:24:39;;;;;;;5.32;2.80;;;32.00;54.00;;;;;;5104587;27;20122;-68
2023/06/13 10:27:07;;;;;;;3.50;2.75;;;32.20;53.70;;;;;;5089389;27;20039;-69
2023/06/13 10:30:07;;;;;;;6.00;2.80;;;32.30;53.80;;;;;;5112009;27;20051;-68
2023/06/13 10:32:38;;;;;;;4.93;2.78;;;32.50;53.90;;;;;;5110290;27;20504;-69
2023/06/13 10:35:24;;;;;;;6.10;2.67;;;32.70;54.20;;;;;;5113875;27;20504;-70
2023/06/13 10:38:09;;;;;;;7.70;2.65;;;32.80;51.80;;;;;;5111468;27;20065;-71
2023/06/13 10:41:12;;;;;;;4.53;2.63;;;32.70;52.70;;;;;;5087669;27;20062;-70
2023/06/13 10:43:41;;;;;;;5.13;2.30;;;32.70;52.40;;;;;;5111036;27;20063;-71
2023/06/13 10:46:08;;;;;;;4.25;2.90;;;32.60;51.90;;;;;;5093966;27;20046;-69
2023/06/13 10:48:54;;;;;;;5.05;2.63;;;32.60;51.80;;;;;;5105997;27;20153;-69
2023/06/13 10:51:30;;;;;;;4.45;2.50;;;32.60;52.20;;;;;;5129951;27;20607;-68
2023/06/13 10:54:02;;;;;;;6.13;2.70;;;32.70;52.90;;;;;;5111235;27;20158;-68
2023/06/13 10:56:32;;;;;;;5.82;2.63;;;32.70;51.80;;;;;;5114644;27;20378;-68
2023/06/13 10:59:06;;;;;;;4.68;2.50;;;32.70;51.80;;;;;;5112013;27;20043;-68
2023/06/13 11:01:34;;;;;;;4.18;2.60;;;32.80;52.70;;;;;;5116635;27;20095;-68
2023/06/13 11:04:22;;;;;;;5.90;2.38;;;32.80;53.10;;;;;;5115784;27;20096;-69
2023/06/13 11:06:54;;;;;;;3.53;2.33;;;32.90;54.50;;;;;;5097412;27;20161;-68
2023/06/13 11:09:24;;;;;;;4.95;2.33;;;33.00;54.20;;;;;;5108810;27;20055;-68
2023/06/13 11:11:58;;;;;;;4.25;2.17;;;33.10;53.90;;;;;;5085711;27;20098;-68
2023/06/13 11:14:27;;;;;;;6.03;2.45;;;33.20;52.80;;;;;;5114374;27;20066;-68
2023/06/13 11:16:53;;;;;;;5.90;2.63;;;33.20;53.50;;;;;;5116145;27;20043;-67
2023/06/13 11:19:29;;;;;;;6.63;2.30;;;33.10;54.70;;;;;;5109917;27;20055;-68
2023/06/13 11:21:58;;;;;;;7.47;2.50;;;33.30;54.90;;;;;;5099632;27;20074;-67
2023/06/13 11:24:23;;;;;;;5.35;2.10;;;33.30;54.30;;;;;;5115858;27;20039;-67
2023/06/13 11:26:49;;;;;;;6.88;2.33;;;33.30;54.60;;;;;;5135104;27;20624;-67
2023/06/13 11:29:16;;;;;;;8.30;2.13;;;33.40;55.10;;;;;;5111724;27;20046;-67
2023/06/13 11:31:42;;;;;;;5.43;1.98;;;33.40;54.30;;;;;;5117343;27;20125;-68
2023/06/13 11:34:15;;;;;;;7.63;2.03;;;33.50;54.00;;;;;;5085996;27;20040;-68
2023/06/13 11:36:44;;;;;;;4.15;1.90;;;33.30;53.00;;;;;;5111418;27;20142;-67
2023/06/13 11:39:12;;;;;;;8.68;1.92;;;33.20;52.90;;;;;;5107801;27;20188;-68
2023/06/13 11:41:39;;;;;;;4.30;1.85;;;33.10;52.30;;;;;;5095692;27;20050;-68
2023/06/13 11:44:05;;;;;;;4.95;1.90;;;33.10;51.90;;;;;;5109784;27;20103;-68
2023/06/13 11:46:31;;;;;;;6.10;1.50;;;33.00;51.60;;;;;;5112740;27;20070;-68
2023/06/13 11:48:57;;;;;;;7.25;1.90;;;33.00;51.10;;;;;;5114361;27;20043;-68
2023/06/13 11:51:27;;;;;;;5.35;1.70;;;33.10;50.70;;;;;;5093513;27;20131;-66
2023/06/13 11:53:56;;;;;;;3.58;1.65;;;33.10;50.10;;;;;;5115960;27;20050;-66
2023/06/13 11:56:23;;;;;;;4.03;1.63;;;33.00;50.60;;;;;;5099036;27;20055;-67
2023/06/13 11:58:51;;;;;;;5.05;1.75;;;32.90;50.60;;;;;;5098833;27;20055;-67
2023/06/13 12:01:17;;;;;;;4.63;1.70;;;32.80;50.60;;;;;;5078265;27;20062;-66
2023/06/13 12:03:47;;;;;;;7.75;1.90;;;32.80;49.80;;;;;;5100292;27;20039;-67
2023/06/13 12:06:14;;;;;;;4.97;1.50;;;32.80;49.60;;;;;;5118977;27;20070;-67
2023/06/13 12:08:42;;;;;;;7.03;1.70;;;32.80;49.90;;;;;;5116034;27;20039;-68
2023/06/13 12:11:13;;;;;;;5.72;1.77;;;33.00;50.70;;;;;;5114904;27;20039;-67
2023/06/13 12:13:39;;;;;;;6.00;2.10;;;33.00;50.40;;;;;;5118465;27;20042;-67
2023/06/13 12:16:06;;;;;;;8.02;1.67;;;33.00;50.70;;;;;;5098109;27;20066;-67
2023/06/13 12:18:32;;;;;;;5.35;1.88;;;33.00;50.90;;;;;;5116933;27;20039;-67
2023/06/13 12:20:59;;;;;;;5.35;1.55;;;32.90;50.70;;;;;;5113598;27;20043;-68
2023/06/13 12:23:27;;;;;;;8.15;1.77;;;33.00;50.80;;;;;;5110446;27;20042;-68
2023/06/13 12:25:53;;;;;;;5.88;1.73;;;33.00;50.80;;;;;;5117318;27;20054;-67
2023/06/13 12:28:19;;;;;;;4.57;1.80;;;33.10;50.80;;;;;;5119314;27;20055;-67
2023/06/13 12:30:50;;;;;;;5.65;1.95;;;33.10;50.90;;;;;;5101444;27;20489;-66
2023/06/13 12:33:20;;;;;;;5.40;1.83;;;33.10;50.90;;;;;;5115829;27;20095;-67
2023/06/13 12:35:51;;;;;;;4.28;1.75;;;33.00;50.80;;;;;;5098613;27;20058;-66
2023/06/13 12:38:19;;;;;;;4.95;1.60;;;33.00;51.00;;;;;;5119524;27;20046;-68
2023/06/13 12:40:51;;;;;;;3.28;1.75;;;33.10;50.80;;;;;;5102523;27;22072;-66
2023/06/13 12:43:21;;;;;;;5.75;1.52;;;33.10;51.10;;;;;;5096226;27;20401;-66
2023/06/13 12:45:47;;;;;;;5.32;1.80;;;33.10;51.20;;;;;;5116991;27;20055;-68
2023/06/13 12:48:17;;;;;;;6.93;1.92;;;33.10;51.10;;;;;;5101765;27;20062;-67
2023/06/13 12:50:43;;;;;;;5.05;1.52;;;33.10;51.10;;;;;;5070473;27;20073;-68